Meteo Giornale » Osservazioni meteo Stati Uniti (USA) » Russellville
ore: 02:53 - Osservazioni Meteo Russellville
Lat. 35° 15' N Lon. 93° 5' W Alt. 123 metri s.l.m.
24 °C
Sereno
Temp. 24 Ore
21 °C
37 °C
Nord
0 Km/h
Dew point 21 °C
Umidità 83 %
Visibilità 10 Km
Il sole sorge alle ore 06:45
Il sole tramonta alle ore 19:39
| Data e Ora | Cielo e Fenomeni | T °C | DP °C | Um. % | Pres. hPa | Vis. km | Vento km/h | |
|---|---|---|---|---|---|---|---|---|
| Oggi h: 02:53 | Sereno | 24 | 21 | 83 | 1017 | 10 | N 0 | |
| Oggi h: 01:53 | Sereno | 24 | 21 | 83 | 1016 | 10 | N 0 | |
| Oggi h: 00:53 | Sereno | 25 | 21 | 78 | 1016 | 10 | N 0 | |
| Ieri h: 23:53 | Sereno | 26 | 21 | 73 | 1016 | 10 | N 0 | |
| Ieri h: 22:53 | Sereno | 27 | 21 | 69 | 1016 | 10 | N 0 | |
| Ieri h: 21:53 | Sereno | 28 | 21 | 65 | 1016 | 10 | N 0 | |
| Ieri h: 20:53 | Sereno | 29 | 19 | 54 | 1015 | 10 | N 0 | |
| Ieri h: 19:53 | Sereno | 31 | 18 | 45 | 1015 | 10 | N 0 | |
| Ieri h: 18:53 | Sereno | 35 | 18 | 36 | 1015 | 10 | E/SE 7.4 | |
| Ieri h: 17:53 | Sereno | 37 | 17 | 30 | 1015 | 10 | E 11.1 | |
| Ieri h: 16:53 | Sereno | 37 | 16 | 28 | 1015 | 10 | N 0 | |
| Ieri h: 15:53 | Sereno | 37 | 15 | 27 | 1015 | 10 | N 9.3 | |
| Ieri h: 14:53 | Sereno | 37 | 16 | 28 | 1016 | 10 | N 11.1 | |
| Ieri h: 13:53 | Sereno | 37 | 16 | 28 | 1016 | 10 | N 7.4 | |
| Ieri h: 12:53 | Sereno | 36 | 19 | 36 | 1017 | 10 | S/SE 11.1 | |
| Ieri h: 11:53 | Sereno | 33 | 20 | 46 | 1018 | 10 | N 5.5 | |
| Ieri h: 10:53 | Sereno | 32 | 20 | 49 | 1018 | 10 | N 7.4 | |
| Ieri h: 09:53 | Sereno | 31 | 20 | 52 | 1018 | 10 | N 5.5 | |
| Ieri h: 08:53 | Sereno | 27 | 19 | 61 | 1018 | 10 | N 0 | |
| Ieri h: 07:53 | Sereno | 23 | 19 | 78 | 1018 | 10 | N 0 | |
| Ieri h: 06:53 | Sereno | 21 | 18 | 82 | 1017 | 10 | N 0 | |
| Ieri h: 05:53 | Sereno | 21 | 18 | 82 | 1017 | 10 | N 0 | |
| Ieri h: 04:53 | Sereno | 21 | 18 | 82 | 1016 | 10 | N 0 | |
| Ieri h: 03:53 | Sereno | 22 | 18 | 78 | 1016 | 10 | N 0 | |



